Time;durP1;ratioP1;P1;durP2;ratioP2;P2;SDS_P1;SDS_P2;PMS_P1;PMS_P2;Temp;Humidity;BMP_temperature;BMP_pressure;BME280_temperature;BME280_humidity;BME280_pressure;Samples;Min_cycle;Max_cycle;Signal;HPM_P1;HPM_P2
2021/12/11 00:00:23;;;;;;;3.40;2.13;;;15.80;65.30;;;;;;10537893;28;20027;-54
2021/12/11 00:05:24;;;;;;;2.78;1.88;;;15.80;65.30;;;;;;10538677;28;20051;-55
2021/12/11 00:10:38;;;;;;;3.33;2.00;;;15.80;65.30;;;;;;10537069;28;20024;-54
2021/12/11 00:15:45;;;;;;;3.25;1.83;;;15.70;65.10;;;;;;10537393;28;20123;-54
2021/12/11 00:21:15;;;;;;;2.35;1.65;;;15.70;65.20;;;;;;10537340;28;20398;-53
2021/12/11 00:26:34;;;;;;;;;;;15.70;65.20;;;;;;10493127;28;20052;-53
2021/12/11 00:31:42;;;;;;;3.58;2.00;;;15.70;65.10;;;;;;10507026;28;19919;-54
2021/12/11 00:37:04;;;;;;;3.20;1.73;;;15.70;65.20;;;;;;10536786;28;20608;-55
2021/12/11 00:42:12;;;;;;;3.10;1.90;;;15.70;65.00;;;;;;10520426;28;20032;-54
2021/12/11 00:47:22;;;;;;;6.05;2.25;;;15.70;64.90;;;;;;10509224;28;20048;-54
2021/12/11 00:52:39;;;;;;;2.55;1.60;;;15.70;64.80;;;;;;10554781;28;20031;-54
2021/12/11 00:57:40;;;;;;;2.70;1.98;;;15.70;64.70;;;;;;10562001;28;20031;-54
2021/12/11 01:02:43;;;;;;;3.05;2.03;;;15.70;64.50;;;;;;10561000;28;20036;-52
2021/12/11 01:07:44;;;;;;;2.97;2.10;;;15.80;64.40;;;;;;10561407;28;20047;-53
2021/12/11 01:12:54;;;;;;;3.15;2.03;;;15.80;64.20;;;;;;10560840;28;20058;-54
2021/12/11 01:23:45;;;;;;;3.97;2.40;;;15.80;64.00;;;;;;10563830;28;20388;-54
2021/12/11 01:28:47;;;;;;;5.00;2.03;;;15.80;64.00;;;;;;10578632;28;20065;-54
2021/12/11 01:33:48;;;;;;;3.45;2.35;;;15.90;63.80;;;;;;10579744;28;20360;-54
2021/12/11 01:38:56;;;;;;;4.18;1.80;;;15.90;63.60;;;;;;10568631;28;20051;-54
2021/12/11 01:44:05;;;;;;;3.95;2.78;;;15.90;63.70;;;;;;10568720;28;20047;-54
2021/12/11 01:49:14;;;;;;;4.40;2.47;;;15.90;63.50;;;;;;10568863;28;20441;-53
2021/12/11 01:54:25;;;;;;;2.88;2.13;;;15.80;63.40;;;;;;10568028;28;20035;-54
2021/12/11 01:59:42;;;;;;;3.80;2.25;;;15.80;63.50;;;;;;10581381;28;20118;-53
2021/12/11 02:04:48;;;;;;;2.72;1.92;;;15.90;63.30;;;;;;10585297;28;20042;-54
2021/12/11 02:09:57;;;;;;;3.30;2.10;;;15.90;63.20;;;;;;10585025;28;20164;-54
2021/12/11 02:15:01;;;;;;;3.38;2.13;;;15.90;63.10;;;;;;10568081;28;20072;-54
2021/12/11 02:20:08;;;;;;;3.65;2.28;;;15.90;63.00;;;;;;10550108;28;20111;-55
2021/12/11 02:25:17;;;;;;;3.30;2.22;;;15.90;62.90;;;;;;10550000;28;20030;-54
2021/12/11 02:30:28;;;;;;;4.10;2.13;;;16.00;62.80;;;;;;10566900;28;20376;-54
2021/12/11 02:36:09;;;;;;;3.28;2.10;;;16.00;62.60;;;;;;10566483;28;20035;-54
2021/12/11 02:41:31;;;;;;;3.00;1.90;;;16.00;62.60;;;;;;10584211;28;20040;-54
2021/12/11 02:46:44;;;;;;;3.58;2.03;;;16.00;62.40;;;;;;10567468;28;20059;-54
2021/12/11 02:51:58;;;;;;;5.07;2.53;;;16.00;62.40;;;;;;10565088;28;20138;-54
2021/12/11 02:57:12;;;;;;;2.83;2.25;;;16.00;62.30;;;;;;10565948;28;20031;-53
2021/12/11 03:02:27;;;;;;;4.03;2.15;;;16.00;62.50;;;;;;10565711;28;20062;-54
2021/12/11 03:07:37;;;;;;;3.75;2.13;;;16.00;62.30;;;;;;10564861;28;20114;-53
2021/12/11 03:12:39;;;;;;;3.47;2.35;;;16.00;62.30;;;;;;10548718;28;20028;-54
2021/12/11 03:17:39;;;;;;;3.78;2.40;;;16.00;62.30;;;;;;10564505;28;20032;-54
2021/12/11 03:22:43;;;;;;;2.80;2.33;;;16.00;62.10;;;;;;10564486;28;20388;-54
2021/12/11 03:27:45;;;;;;;2.78;2.00;;;16.00;62.00;;;;;;10564523;28;20040;-55
2021/12/11 03:32:50;;;;;;;3.55;2.20;;;16.10;62.00;;;;;;10564129;28;20605;-54
2021/12/11 03:37:51;;;;;;;3.92;2.35;;;16.00;61.90;;;;;;10564009;28;20145;-54
2021/12/11 03:42:56;;;;;;;2.97;1.85;;;16.00;62.00;;;;;;10563483;28;20147;-54
2021/12/11 03:48:05;;;;;;;2.80;2.30;;;16.00;62.00;;;;;;10546275;28;20051;-54
2021/12/11 03:53:07;;;;;;;3.53;2.28;;;16.00;61.80;;;;;;10546243;28;20024;-53
2021/12/11 03:58:09;;;;;;;3.15;2.28;;;16.00;62.00;;;;;;10580091;28;20039;-54
2021/12/11 04:03:13;;;;;;;3.50;2.45;;;16.00;61.90;;;;;;10562634;28;20028;-55
2021/12/11 04:08:24;;;;;;;3.33;2.20;;;16.00;61.80;;;;;;10563193;28;20032;-53
2021/12/11 04:13:25;;;;;;;3.90;2.80;;;16.00;61.90;;;;;;10562043;28;20035;-54
2021/12/11 04:18:25;;;;;;;3.35;2.38;;;16.00;61.80;;;;;;10545317;28;20072;-53
2021/12/11 04:23:26;;;;;;;4.25;2.55;;;16.00;61.90;;;;;;10562015;28;20055;-54
2021/12/11 04:28:31;;;;;;;3.53;2.58;;;16.00;61.80;;;;;;10562055;28;20031;-54
2021/12/11 04:33:40;;;;;;;4.65;2.22;;;16.00;61.80;;;;;;10561654;28;20031;-55
2021/12/11 04:38:42;;;;;;;4.00;2.92;;;16.00;61.80;;;;;;10562522;28;20070;-53
2021/12/11 04:43:43;;;;;;;3.28;2.70;;;16.00;61.70;;;;;;10536221;28;20040;-54
2021/12/11 04:49:10;;;;;;;4.65;2.38;;;16.10;61.50;;;;;;10519691;28;20044;-54
2021/12/11 04:59:54;;;;;;;3.88;2.60;;;16.00;61.50;;;;;;10563024;28;20043;-54
2021/12/11 05:10:47;;;;;;;3.08;2.70;;;16.00;61.60;;;;;;10567545;28;20031;-54
2021/12/11 05:15:51;;;;;;;3.50;2.38;;;16.00;61.50;;;;;;10572629;28;20362;-53
2021/12/11 05:20:57;;;;;;;5.18;3.38;;;16.10;61.30;;;;;;10569525;28;20028;-54
2021/12/11 05:25:58;;;;;;;4.43;2.67;;;16.10;61.10;;;;;;10569419;28;20063;-53
2021/12/11 05:31:02;;;;;;;3.88;2.53;;;16.10;61.30;;;;;;10586901;28;20481;-55
2021/12/11 05:36:07;;;;;;;4.55;2.78;;;16.10;61.40;;;;;;10568787;28;20035;-54
2021/12/11 05:41:12;;;;;;;4.50;2.67;;;16.10;61.40;;;;;;10567041;28;20110;-54
2021/12/11 05:46:15;;;;;;;4.00;2.70;;;16.20;61.10;;;;;;10567339;28;20088;-54
2021/12/11 05:51:21;;;;;;;4.18;2.60;;;16.30;61.40;;;;;;10566589;28;20046;-54
2021/12/11 05:56:24;;;;;;;4.03;2.70;;;16.40;60.40;;;;;;10562100;28;20040;-54
2021/12/11 06:01:50;;;;;;;5.40;2.75;;;16.50;60.00;;;;;;10566494;28;20023;-54
2021/12/11 06:06:52;;;;;;;4.05;2.95;;;16.60;59.80;;;;;;10584208;28;20058;-54
2021/12/11 06:12:04;;;;;;;4.05;3.25;;;16.60;59.80;;;;;;10564890;28;20023;-54
2021/12/11 06:17:09;;;;;;;6.25;3.10;;;16.70;59.60;;;;;;10572495;28;20032;-54
2021/12/11 06:22:10;;;;;;;4.72;3.20;;;16.60;59.50;;;;;;10545527;28;20019;-55
2021/12/11 06:27:11;;;;;;;5.82;3.08;;;16.80;59.50;;;;;;10566582;28;20020;-56
2021/12/11 06:32:12;;;;;;;6.57;3.42;;;16.80;59.30;;;;;;10549466;28;20356;-52
2021/12/11 06:37:15;;;;;;;4.60;3.47;;;16.80;60.70;;;;;;10566304;28;20429;-53
2021/12/11 06:42:19;;;;;;;7.47;3.20;;;16.70;61.20;;;;;;10584078;28;20379;-54
2021/12/11 06:47:20;;;;;;;5.97;3.42;;;17.10;60.80;;;;;;10566028;28;20093;-56
2021/12/11 06:52:25;;;;;;;5.47;3.15;;;17.10;61.20;;;;;;10538520;28;20084;-53
2021/12/11 06:57:25;;;;;;;5.65;3.20;;;17.10;61.00;;;;;;10565878;28;20051;-54
2021/12/11 07:02:26;;;;;;;5.78;3.45;;;17.20;61.50;;;;;;10557790;28;20028;-55
2021/12/11 07:07:33;;;;;;;5.72;2.80;;;17.00;61.40;;;;;;10552713;28;20066;-54
2021/12/11 07:12:33;;;;;;;10.18;3.97;;;16.90;61.30;;;;;;10558589;28;20111;-56
2021/12/11 07:17:34;;;;;;;11.70;4.00;;;16.80;61.10;;;;;;10562266;28;20636;-53
2021/12/11 07:22:39;;;;;;;14.55;3.67;;;16.70;61.20;;;;;;10531289;28;20035;-54
2021/12/11 07:27:40;;;;;;;10.45;3.78;;;16.80;60.90;;;;;;10564088;28;20039;-54
2021/12/11 07:32:41;;;;;;;8.43;3.22;;;16.80;61.00;;;;;;10578279;28;20400;-54
2021/12/11 07:37:47;;;;;;;7.82;2.90;;;16.80;61.00;;;;;;10577454;28;20052;-53
2021/12/11 07:42:48;;;;;;;8.85;3.25;;;16.90;60.80;;;;;;10543969;28;20036;-54
2021/12/11 07:47:49;;;;;;;4.95;3.05;;;16.80;60.90;;;;;;10580336;28;20054;-55
2021/12/11 07:52:50;;;;;;;7.60;4.25;;;16.80;60.80;;;;;;10581159;28;20036;-53
2021/12/11 07:57:51;;;;;;;7.35;3.15;;;16.80;60.60;;;;;;10562838;28;20028;-54
2021/12/11 08:02:53;;;;;;;5.00;3.00;;;16.80;60.70;;;;;;10567163;28;20510;-54
2021/12/11 08:07:58;;;;;;;9.05;3.03;;;16.80;60.70;;;;;;10554002;28;20043;-50
2021/12/11 08:13:02;;;;;;;15.00;4.40;;;16.90;60.80;;;;;;10578650;28;20024;-57
2021/12/11 08:18:07;;;;;;;12.05;4.07;;;16.80;61.50;;;;;;10558069;28;20032;-57
2021/12/11 08:23:10;;;;;;;13.70;5.03;;;16.90;61.00;;;;;;10555235;28;20035;-57
2021/12/11 08:28:17;;;;;;;17.95;4.15;;;16.90;61.30;;;;;;10555619;28;20028;-56
2021/12/11 08:33:19;;;;;;;18.00;4.45;;;16.90;61.20;;;;;;10579461;28;20036;-58
2021/12/11 08:38:20;;;;;;;13.65;4.68;;;17.00;60.80;;;;;;10553957;28;20032;-56
2021/12/11 08:43:23;;;;;;;9.50;4.75;;;17.00;61.50;;;;;;10559736;28;20035;-58
2021/12/11 08:48:26;;;;;;;11.07;3.83;;;17.00;61.50;;;;;;10572126;28;20056;-57
2021/12/11 08:53:28;;;;;;;27.02;5.30;;;17.20;61.30;;;;;;10552384;28;20107;-57
2021/12/11 08:58:30;;;;;;;9.23;4.13;;;17.10;61.50;;;;;;10567996;28;20024;-56
2021/12/11 09:03:42;;;;;;;9.80;3.90;;;17.10;61.90;;;;;;10559749;28;20034;-54
2021/12/11 09:08:53;;;;;;;13.20;4.43;;;17.10;62.10;;;;;;10558263;28;20572;-55
2021/12/11 09:14:08;;;;;;;9.95;3.90;;;17.10;62.30;;;;;;10556757;28;20034;-55
2021/12/11 09:19:31;;;;;;;17.65;5.10;;;17.30;62.00;;;;;;10559718;28;20553;-55
2021/12/11 09:24:40;;;;;;;42.05;6.85;;;17.30;61.90;;;;;;10560461;28;20039;-56
2021/12/11 09:30:08;;;;;;;34.15;5.55;;;17.40;61.80;;;;;;10560687;28;20341;-58
2021/12/11 09:35:31;;;;;;;25.10;5.68;;;17.40;62.10;;;;;;10555760;28;20475;-55
2021/12/11 09:40:35;;;;;;;11.45;4.00;;;17.50;61.90;;;;;;10561238;28;20472;-57
2021/12/11 09:45:43;;;;;;;18.55;5.07;;;17.60;61.50;;;;;;10578240;28;20042;-54
2021/12/11 09:51:00;;;;;;;13.45;4.30;;;17.40;62.20;;;;;;10534734;28;20040;-55
2021/12/11 09:56:07;;;;;;;12.15;3.70;;;17.60;60.90;;;;;;10530030;28;20120;-54
2021/12/11 10:01:30;;;;;;;16.35;4.13;;;17.80;60.30;;;;;;10542131;28;20112;-56
2021/12/11 10:06:50;;;;;;;10.85;4.00;;;17.50;60.90;;;;;;10529104;28;20429;-56
2021/12/11 10:11:59;;;;;;;16.27;3.92;;;17.50;61.10;;;;;;10541252;28;20028;-55
2021/12/11 10:17:08;;;;;;;16.20;4.38;;;17.40;61.30;;;;;;10539029;28;20113;-55
2021/12/11 10:22:24;;;;;;;17.58;4.95;;;17.20;62.00;;;;;;10541796;28;20466;-51
2021/12/11 10:27:31;;;;;;;16.05;4.28;;;17.20;62.30;;;;;;10555944;28;20414;-52
2021/12/11 10:32:33;;;;;;;9.23;3.38;;;17.10;62.50;;;;;;10524531;28;20043;-53
2021/12/11 10:37:36;;;;;;;9.68;4.45;;;17.10;63.20;;;;;;10540931;28;20036;-53
2021/12/11 10:42:38;;;;;;;14.23;4.22;;;17.20;62.60;;;;;;10540714;28;20119;-49
2021/12/11 10:47:48;;;;;;;8.63;4.00;;;17.10;62.60;;;;;;10549488;28;20135;-54
2021/12/11 10:52:51;;;;;;;10.32;4.00;;;17.10;62.60;;;;;;10572347;28;20036;-51
2021/12/11 10:57:59;;;;;;;7.88;3.40;;;17.10;62.60;;;;;;10574060;28;20364;-52
2021/12/11 11:03:00;;;;;;;11.45;3.83;;;17.10;62.60;;;;;;10564003;28;20034;-53
2021/12/11 11:08:03;;;;;;;11.95;3.83;;;17.20;62.70;;;;;;10563183;28;20663;-52
2021/12/11 11:13:11;;;;;;;7.28;3.90;;;17.20;62.80;;;;;;10548254;28;20375;-49
2021/12/11 11:18:16;;;;;;;10.20;4.25;;;17.10;62.70;;;;;;10564711;28;20056;-51
2021/12/11 11:23:17;;;;;;;8.00;3.92;;;17.20;62.60;;;;;;10565108;28;20028;-50
2021/12/11 11:28:24;;;;;;;4.35;3.20;;;17.10;62.70;;;;;;10554964;28;20119;-49
2021/12/11 11:33:28;;;;;;;7.72;3.60;;;17.20;62.60;;;;;;10564803;28;20107;-50
2021/12/11 11:38:34;;;;;;;7.53;4.05;;;17.10;62.60;;;;;;10563632;28;20031;-53
2021/12/11 11:43:35;;;;;;;12.05;4.28;;;17.20;62.70;;;;;;10564130;28;20027;-50
2021/12/11 11:48:41;;;;;;;5.60;3.20;;;17.20;62.50;;;;;;10563207;28;20047;-54
2021/12/11 11:53:42;;;;;;;8.05;3.08;;;17.20;62.40;;;;;;10580651;28;20115;-51
2021/12/11 11:58:43;;;;;;;10.20;3.75;;;17.40;62.00;;;;;;10559288;28;20471;-51
2021/12/11 12:03:44;;;;;;;12.52;4.07;;;17.40;62.50;;;;;;10552736;28;20032;-48
2021/12/11 12:08:45;;;;;;;8.65;3.53;;;17.50;62.80;;;;;;10549288;28;20031;-51
2021/12/11 12:13:46;;;;;;;7.70;3.33;;;17.60;63.50;;;;;;10571061;28;20039;-51
2021/12/11 12:18:47;;;;;;;12.52;4.22;;;17.40;63.70;;;;;;10561520;28;20788;-48
2021/12/11 12:23:48;;;;;;;12.07;4.13;;;17.30;64.40;;;;;;10580462;28;20032;-49
2021/12/11 12:28:52;;;;;;;20.30;4.75;;;17.30;64.60;;;;;;10579350;28;20452;-46
2021/12/11 12:33:54;;;;;;;13.73;4.70;;;17.40;65.00;;;;;;10550506;28;20129;-45
2021/12/11 12:38:56;;;;;;;21.50;4.60;;;17.50;65.10;;;;;;10561566;28;20055;-51
2021/12/11 12:44:17;;;;;;;12.07;4.07;;;17.50;66.00;;;;;;10561834;28;20540;-52
2021/12/11 12:49:19;;;;;;;19.02;4.97;;;17.40;65.40;;;;;;10578888;28;20624;-49
2021/12/11 12:54:23;;;;;;;16.42;5.45;;;17.30;66.00;;;;;;10540919;28;20114;-50
2021/12/11 12:59:33;;;;;;;25.70;6.60;;;17.40;65.20;;;;;;10559828;28;20035;-51
2021/12/11 13:04:49;;;;;;;19.73;5.18;;;17.40;65.00;;;;;;10575594;28;20030;-49
2021/12/11 13:10:01;;;;;;;14.27;4.57;;;17.40;64.50;;;;;;10550269;28;20031;-48
2021/12/11 13:15:36;;;;;;;15.63;4.30;;;17.50;64.60;;;;;;10547953;28;20040;-54
2021/12/11 13:20:48;;;;;;;14.15;5.20;;;17.50;64.80;;;;;;10575589;28;20093;-54
2021/12/11 13:25:56;;;;;;;16.13;5.03;;;17.30;64.80;;;;;;10578775;28;20395;-52
2021/12/11 13:31:16;;;;;;;15.20;4.80;;;17.40;64.50;;;;;;10564090;28;20024;-53
2021/12/11 13:36:20;;;;;;;16.15;4.50;;;17.40;63.90;;;;;;10586173;28;20083;-52
2021/12/11 13:41:27;;;;;;;16.60;4.93;;;17.40;63.60;;;;;;10568566;28;20031;-54
2021/12/11 13:46:29;;;;;;;13.38;4.03;;;17.40;63.30;;;;;;10568420;28;20150;-55
2021/12/11 13:51:37;;;;;;;13.10;4.32;;;17.40;63.20;;;;;;10584745;28;20084;-51
2021/12/11 13:56:45;;;;;;;9.60;4.38;;;17.40;62.80;;;;;;10566028;28;20526;-55
2021/12/11 14:01:47;;;;;;;17.63;4.95;;;17.40;62.80;;;;;;10565658;28;20043;-54
2021/12/11 14:07:03;;;;;;;14.15;4.57;;;17.40;62.90;;;;;;10540775;28;20033;-54
2021/12/11 14:12:05;;;;;;;10.48;4.20;;;17.50;62.60;;;;;;10562807;28;20112;-54
2021/12/11 14:17:06;;;;;;;17.40;4.32;;;17.50;62.40;;;;;;10567566;28;20553;-54
2021/12/11 14:22:07;;;;;;;8.90;4.03;;;17.50;62.50;;;;;;10547855;28;20027;-54
2021/12/11 14:27:13;;;;;;;10.82;4.13;;;17.60;62.30;;;;;;10582759;28;20031;-55
2021/12/11 14:32:19;;;;;;;13.45;4.50;;;17.50;62.40;;;;;;10564670;28;20600;-54
2021/12/11 14:37:20;;;;;;;13.13;4.65;;;17.60;62.10;;;;;;10566229;28;20030;-54
2021/12/11 14:42:26;;;;;;;9.23;3.90;;;17.50;62.10;;;;;;10583103;28;20535;-54
2021/12/11 14:47:27;;;;;;;11.48;3.90;;;17.60;62.20;;;;;;10566123;28;20048;-54
2021/12/11 14:52:30;;;;;;;15.70;4.53;;;17.60;62.10;;;;;;10583919;28;20023;-54
2021/12/11 14:57:32;;;;;;;7.25;3.40;;;17.50;62.10;;;;;;10572664;28;20071;-53
2021/12/11 15:02:38;;;;;;;10.95;3.90;;;17.60;62.00;;;;;;10548279;28;20039;-54
2021/12/11 15:07:39;;;;;;;10.50;3.55;;;17.60;61.90;;;;;;10556385;28;20035;-55
2021/12/11 15:12:40;;;;;;;10.57;3.78;;;17.50;62.10;;;;;;10544500;28;20035;-50
2021/12/11 15:17:41;;;;;;;8.02;4.00;;;17.40;62.30;;;;;;10574605;28;20049;-54
2021/12/11 15:22:42;;;;;;;16.40;5.63;;;17.50;62.10;;;;;;10548994;28;21384;-54
2021/12/11 15:27:43;;;;;;;13.82;5.38;;;17.50;62.10;;;;;;10563691;28;20027;-55
2021/12/11 15:32:45;;;;;;;25.13;4.35;;;17.50;62.60;;;;;;10563571;28;20020;-55
2021/12/11 15:37:46;;;;;;;16.70;4.43;;;17.60;63.70;;;;;;10563513;28;20055;-55
2021/12/11 15:42:50;;;;;;;11.93;3.83;;;17.50;63.00;;;;;;10581612;28;20031;-54
2021/12/11 15:47:54;;;;;;;8.45;4.18;;;17.60;62.90;;;;;;10562779;28;20052;-55
2021/12/11 15:52:56;;;;;;;19.20;4.70;;;17.70;64.50;;;;;;10561357;28;20024;-54
2021/12/11 15:57:58;;;;;;;12.63;4.20;;;17.80;65.50;;;;;;10559397;28;20015;-54
2021/12/11 16:02:59;;;;;;;11.02;4.07;;;18.00;64.80;;;;;;10553874;28;20034;-53
2021/12/11 16:08:00;;;;;;;13.98;5.15;;;17.90;64.80;;;;;;10561779;28;20055;-53
2021/12/11 16:13:01;;;;;;;16.48;5.13;;;17.80;65.10;;;;;;10561694;28;20051;-54
2021/12/11 16:18:03;;;;;;;15.93;4.00;;;17.60;65.50;;;;;;10560198;28;20429;-54
2021/12/11 16:23:04;;;;;;;19.02;4.65;;;17.80;66.10;;;;;;10562055;28;20039;-52
2021/12/11 16:28:09;;;;;;;18.85;4.47;;;17.80;65.90;;;;;;10550502;28;20042;-50
2021/12/11 16:33:11;;;;;;;18.42;4.85;;;17.80;66.10;;;;;;10580302;28;20032;-53
2021/12/11 16:38:15;;;;;;;14.75;3.78;;;17.80;66.40;;;;;;10561846;28;20662;-51
2021/12/11 16:43:23;;;;;;;11.82;3.80;;;17.80;66.60;;;;;;10578616;28;20112;-51
2021/12/11 16:48:33;;;;;;;18.08;4.50;;;17.90;65.90;;;;;;10544074;28;20089;-50
2021/12/11 16:53:40;;;;;;;26.42;8.43;;;18.00;65.20;;;;;;10544077;28;20438;-55
2021/12/11 16:58:42;;;;;;;28.05;7.93;;;18.30;67.10;;;;;;10561717;28;20027;-50
2021/12/11 17:03:44;;;;;;;26.23;8.88;;;18.30;64.90;;;;;;10538715;28;20057;-52
2021/12/11 17:08:47;;;;;;;28.77;9.55;;;17.80;65.40;;;;;;10551733;28;20027;-53
2021/12/11 17:13:50;;;;;;;19.63;8.75;;;17.80;65.30;;;;;;10535872;28;20118;-52
2021/12/11 17:18:51;;;;;;;18.05;8.55;;;17.60;67.30;;;;;;10586292;28;20020;-50
2021/12/11 17:23:53;;;;;;;17.05;6.50;;;18.00;67.70;;;;;;10569144;28;20043;-51
2021/12/11 17:29:10;;;;;;;19.05;8.25;;;18.10;66.40;;;;;;10569062;28;20080;-51
2021/12/11 17:34:15;;;;;;;13.65;5.63;;;17.90;67.90;;;;;;10587072;28;20490;-51
2021/12/11 17:39:19;;;;;;;11.02;5.95;;;17.90;68.20;;;;;;10587060;28;20020;-49
2021/12/11 17:44:20;;;;;;;11.90;5.80;;;17.80;68.10;;;;;;10568235;28;20031;-51
2021/12/11 17:49:21;;;;;;;12.35;5.55;;;17.80;66.80;;;;;;10567137;28;20499;-52
2021/12/11 17:54:25;;;;;;;13.35;5.30;;;17.80;66.40;;;;;;10567898;28;20051;-51
2021/12/11 17:59:30;;;;;;;14.27;5.03;;;17.90;65.90;;;;;;10568374;28;20043;-52
2021/12/11 18:04:39;;;;;;;16.20;5.40;;;17.90;65.50;;;;;;10568398;28;20036;-51
2021/12/11 18:09:44;;;;;;;13.63;6.80;;;18.00;66.00;;;;;;10585700;28;20058;-52
2021/12/11 18:14:57;;;;;;;8.57;5.72;;;18.10;65.70;;;;;;10567154;28;20482;-53
2021/12/11 18:20:29;;;;;;;12.25;5.28;;;18.00;65.60;;;;;;10565976;28;20047;-52
2021/12/11 18:25:31;;;;;;;13.95;5.05;;;18.00;65.20;;;;;;10580594;28;20042;-52
2021/12/11 18:30:42;;;;;;;7.78;4.05;;;17.90;65.00;;;;;;10559919;28;20042;-49
2021/12/11 18:35:47;;;;;;;10.63;4.75;;;17.90;65.00;;;;;;10555600;28;20036;-50
2021/12/11 18:41:09;;;;;;;7.88;4.20;;;17.90;65.10;;;;;;10554389;28;20023;-52
2021/12/11 18:46:15;;;;;;;11.60;4.30;;;18.00;65.10;;;;;;10568245;28;20066;-51
2021/12/11 18:51:26;;;;;;;9.30;4.10;;;17.90;65.00;;;;;;10543049;28;20044;-53
2021/12/11 18:56:32;;;;;;;6.60;3.72;;;17.90;65.00;;;;;;10531763;28;20412;-53
2021/12/11 19:01:38;;;;;;;13.23;4.15;;;18.00;65.00;;;;;;10545179;28;20059;-50
2021/12/11 19:06:39;;;;;;;6.97;3.42;;;17.90;65.10;;;;;;10566003;28;20474;-50
2021/12/11 19:11:55;;;;;;;8.65;4.40;;;17.90;65.10;;;;;;10546836;28;20047;-52
2021/12/11 19:16:57;;;;;;;4.93;3.70;;;18.00;64.90;;;;;;10562195;28;20387;-53
2021/12/11 19:22:07;;;;;;;7.57;3.53;;;17.90;65.00;;;;;;10552884;28;20031;-53
2021/12/11 19:27:14;;;;;;;5.95;3.72;;;18.00;65.10;;;;;;10564240;28;20055;-54
2021/12/11 19:32:16;;;;;;;10.25;3.65;;;17.90;65.00;;;;;;10564896;28;20027;-54
2021/12/11 19:37:17;;;;;;;9.18;3.67;;;18.00;65.00;;;;;;10551452;28;20024;-52
2021/12/11 19:42:18;;;;;;;7.03;3.20;;;17.90;64.90;;;;;;10550068;28;20031;-53
2021/12/11 19:47:21;;;;;;;6.93;3.35;;;18.00;65.10;;;;;;10563617;28;20113;-53
2021/12/11 19:52:27;;;;;;;9.70;3.63;;;17.90;64.90;;;;;;10563169;28;20793;-56
2021/12/11 19:57:30;;;;;;;6.38;2.83;;;18.00;65.20;;;;;;10548964;28;20105;-56
2021/12/11 20:02:35;;;;;;;7.70;3.35;;;17.90;65.80;;;;;;10545645;28;20459;-56
2021/12/11 20:07:37;;;;;;;10.50;3.88;;;17.80;66.10;;;;;;10531315;28;20040;-55
2021/12/11 20:12:48;;;;;;;8.10;3.30;;;17.80;66.40;;;;;;10549641;28;20028;-55
2021/12/11 20:17:49;;;;;;;7.75;3.10;;;17.60;66.80;;;;;;10539825;28;20352;-56
2021/12/11 20:22:53;;;;;;;7.38;3.95;;;17.50;66.60;;;;;;10529753;28;20023;-56
2021/12/11 20:27:55;;;;;;;7.03;3.17;;;17.50;66.60;;;;;;10562136;28;20036;-57
2021/12/11 20:32:57;;;;;;;6.53;3.63;;;17.40;66.80;;;;;;10562101;28;20034;-57
2021/12/11 20:37:58;;;;;;;7.38;3.33;;;17.30;66.90;;;;;;10543578;28;20020;-56
2021/12/11 20:43:05;;;;;;;9.05;2.95;;;17.10;67.80;;;;;;10537904;28;20471;-57
2021/12/11 20:48:08;;;;;;;6.63;3.22;;;17.00;67.40;;;;;;10562441;28;20495;-56
2021/12/11 20:53:10;;;;;;;7.20;3.10;;;17.00;67.60;;;;;;10544555;28;20059;-57
2021/12/11 20:58:13;;;;;;;10.23;3.25;;;16.90;67.50;;;;;;10561168;28;20031;-57
2021/12/11 21:03:18;;;;;;;6.90;3.40;;;16.90;67.70;;;;;;10578551;28;20032;-57
2021/12/11 21:08:19;;;;;;;7.20;3.25;;;16.80;67.80;;;;;;10578040;28;20039;-56
2021/12/11 21:13:34;;;;;;;8.07;3.15;;;16.70;68.00;;;;;;10545947;28;20036;-57
2021/12/11 21:18:40;;;;;;;5.05;2.78;;;16.60;68.00;;;;;;10558724;28;20104;-57
2021/12/11 21:23:57;;;;;;;5.30;2.75;;;16.60;68.10;;;;;;10576877;28;20375;-57
2021/12/11 21:29:03;;;;;;;9.73;4.05;;;16.50;68.10;;;;;;10562416;28;20032;-56
2021/12/11 21:34:04;;;;;;;5.10;2.75;;;16.50;68.10;;;;;;10561088;28;20027;-56
2021/12/11 21:39:22;;;;;;;5.38;3.17;;;16.40;68.00;;;;;;10560421;28;20379;-57
2021/12/11 21:44:24;;;;;;;4.75;2.83;;;16.40;68.00;;;;;;10561374;28;20031;-57
2021/12/11 21:49:50;;;;;;;4.85;2.60;;;16.40;68.00;;;;;;10543259;28;20043;-57
2021/12/11 21:54:56;;;;;;;5.53;2.92;;;16.30;68.00;;;;;;10568474;28;20452;-56
2021/12/11 22:00:23;;;;;;;4.70;2.97;;;16.30;68.00;;;;;;10567926;28;20024;-57
2021/12/11 22:05:36;;;;;;;5.10;2.40;;;16.20;67.90;;;;;;10552005;28;20120;-57
2021/12/11 22:10:45;;;;;;;5.47;2.50;;;16.20;67.90;;;;;;10548521;28;20061;-57
2021/12/11 22:16:12;;;;;;;4.97;2.55;;;16.20;67.90;;;;;;10551160;28;20402;-56
2021/12/11 22:21:19;;;;;;;9.82;3.42;;;16.10;67.80;;;;;;10569079;28;20047;-56
2021/12/11 22:26:43;;;;;;;5.93;3.33;;;16.10;67.90;;;;;;10567627;28;20089;-56
2021/12/11 22:31:51;;;;;;;4.30;2.85;;;16.10;67.90;;;;;;10569079;28;20064;-56
2021/12/11 22:36:55;;;;;;;4.57;2.72;;;16.00;67.80;;;;;;10566605;28;20059;-56
2021/12/11 22:42:00;;;;;;;5.93;2.83;;;16.00;67.80;;;;;;10583963;28;20065;-56
2021/12/11 22:47:12;;;;;;;3.72;2.60;;;15.90;67.80;;;;;;10565879;28;20044;-56
2021/12/11 22:52:15;;;;;;;3.85;2.50;;;15.90;67.90;;;;;;10565799;28;20122;-56
2021/12/11 22:57:29;;;;;;;3.97;2.55;;;15.90;67.90;;;;;;10565555;28;20058;-56
2021/12/11 23:02:34;;;;;;;4.25;2.45;;;15.90;67.90;;;;;;10552794;28;20114;-56
2021/12/11 23:07:43;;;;;;;4.20;2.55;;;15.80;67.90;;;;;;10563449;28;20035;-56
2021/12/11 23:12:54;;;;;;;5.60;2.90;;;15.80;67.90;;;;;;10551717;28;20755;-56
2021/12/11 23:18:02;;;;;;;3.90;2.33;;;15.80;67.90;;;;;;10565073;28;20495;-55
2021/12/11 23:23:22;;;;;;;4.43;2.60;;;15.80;67.80;;;;;;10582624;28;20476;-57
2021/12/11 23:28:34;;;;;;;4.25;2.90;;;15.80;67.80;;;;;;10565194;28;20027;-56
2021/12/11 23:34:15;;;;;;;4.28;3.00;;;15.70;67.80;;;;;;10565691;28;20032;-57
2021/12/11 23:39:28;;;;;;;4.63;2.63;;;15.70;67.80;;;;;;10562959;28;20039;-56
2021/12/11 23:44:37;;;;;;;4.35;3.10;;;15.70;67.80;;;;;;10545151;28;20552;-57
2021/12/11 23:49:41;;;;;;;3.78;2.35;;;15.70;67.80;;;;;;10563545;28;20055;-57
2021/12/11 23:54:46;;;;;;;3.60;2.13;;;15.70;67.90;;;;;;10563396;28;20036;-56
2021/12/11 23:59:59;;;;;;;6.90;3.38;;;15.60;67.90;;;;;;10546245;28;20031;-57
